createdAt,value
2023-03-22T00:02:56.412Z,46.44
2023-03-22T00:06:56.493Z,46.44
2023-03-22T00:10:56.615Z,46.43
2023-03-22T00:14:56.760Z,46.38
2023-03-22T00:18:57.533Z,46.39
2023-03-22T00:22:56.981Z,46.36
2023-03-22T00:26:57.067Z,46.35
2023-03-22T00:30:57.142Z,46.32
2023-03-22T00:34:57.225Z,46.34
2023-03-22T00:38:57.277Z,46.29
2023-03-22T00:42:57.397Z,46.29
2023-03-22T00:46:57.482Z,46.28
2023-03-22T00:50:57.613Z,46.23
2023-03-22T00:54:57.727Z,46.24
2023-03-22T00:58:57.749Z,46.20
2023-03-22T01:02:57.815Z,46.21
2023-03-22T01:06:57.885Z,46.15
2023-03-22T01:10:57.977Z,46.14
2023-03-22T01:14:58.122Z,46.15
2023-03-22T01:18:58.243Z,46.12
2023-03-22T01:22:58.366Z,46.10
2023-03-22T01:26:58.456Z,46.11
2023-03-22T01:30:58.598Z,46.10
2023-03-22T01:34:58.611Z,46.08
2023-03-22T01:38:58.629Z,46.09
2023-03-22T01:42:58.705Z,46.04
2023-03-22T01:46:58.733Z,46.03
2023-03-22T01:50:58.809Z,46.03
2023-03-22T01:54:58.860Z,46.02
2023-03-22T01:58:58.891Z,45.99
2023-03-22T02:02:58.962Z,45.95
2023-03-22T02:06:58.942Z,45.93
2023-03-22T02:10:58.968Z,45.92
2023-03-22T02:14:59.033Z,45.90
2023-03-22T02:18:59.084Z,45.88
2023-03-22T02:22:59.097Z,45.88
2023-03-22T02:26:59.080Z,45.84
2023-03-22T02:30:59.116Z,45.82
2023-03-22T02:34:59.081Z,45.81
2023-03-22T02:38:59.071Z,45.81
2023-03-22T02:42:59.073Z,45.79
2023-03-22T02:46:59.175Z,45.79
2023-03-22T02:50:59.123Z,45.77
2023-03-22T02:54:59.153Z,45.73
2023-03-22T02:58:59.177Z,45.72
2023-03-22T03:02:59.183Z,45.72
2023-03-22T03:06:59.139Z,45.72
2023-03-22T03:10:59.123Z,45.69
2023-03-22T03:14:59.100Z,45.69
2023-03-22T03:18:59.110Z,45.64
2023-03-22T03:22:59.068Z,45.65
2023-03-22T03:26:59.057Z,45.64
2023-03-22T03:30:59.031Z,45.62
2023-03-22T03:34:59.008Z,45.60
2023-03-22T03:38:58.979Z,45.58
2023-03-22T03:42:58.995Z,45.56
2023-03-22T03:46:58.975Z,45.50
2023-03-22T03:50:59.006Z,45.54
2023-03-22T03:54:58.969Z,45.53
2023-03-22T03:58:58.932Z,45.48
2023-03-22T04:02:58.938Z,45.48
2023-03-22T04:06:58.917Z,45.50
2023-03-22T04:10:58.860Z,45.46
2023-03-22T04:14:58.875Z,45.44
2023-03-22T04:18:58.870Z,45.43
2023-03-22T04:22:58.836Z,45.43
2023-03-22T04:26:58.798Z,45.40
2023-03-22T04:30:58.910Z,45.36
2023-03-22T04:34:58.780Z,45.35
2023-03-22T04:38:58.776Z,45.35
2023-03-22T04:42:58.763Z,45.34
2023-03-22T04:46:58.735Z,45.33
2023-03-22T04:50:58.705Z,45.30
2023-03-22T04:54:58.744Z,45.29
2023-03-22T04:58:58.688Z,45.27
2023-03-22T05:02:58.750Z,45.22
2023-03-22T05:07:41.671Z,45.25
2023-03-22T05:11:41.649Z,45.22
2023-03-22T05:15:41.624Z,45.21
2023-03-22T05:19:41.601Z,45.21
2023-03-22T05:23:41.558Z,45.13
2023-03-22T05:27:41.560Z,45.16
2023-03-22T05:31:41.595Z,45.14
2023-03-22T05:35:41.791Z,45.14
2023-03-22T05:39:41.517Z,45.10
2023-03-22T05:43:41.462Z,45.08
2023-03-22T05:47:41.485Z,45.04
2023-03-22T05:51:41.402Z,45.06
2023-03-22T05:55:41.374Z,45.06
2023-03-22T05:59:41.331Z,44.97
2023-03-22T06:03:41.341Z,45.00
2023-03-22T06:07:41.315Z,44.99
2023-03-22T06:11:41.316Z,44.93
2023-03-22T06:15:41.323Z,44.92
2023-03-22T06:19:41.284Z,44.91
2023-03-22T06:23:41.299Z,44.92
2023-03-22T06:27:41.281Z,44.90
2023-03-22T06:31:41.231Z,44.88
2023-03-22T06:35:41.281Z,44.86
2023-03-22T06:39:41.427Z,44.83
2023-03-22T06:43:41.447Z,44.86
2023-03-22T06:47:41.513Z,44.82
2023-03-22T06:51:41.158Z,44.81
2023-03-22T06:55:41.432Z,44.78
2023-03-22T06:59:41.423Z,44.78
2023-03-22T07:03:41.115Z,44.79
2023-03-22T07:07:41.103Z,44.76
2023-03-22T07:11:41.446Z,44.72
2023-03-22T07:15:41.096Z,44.76
2023-03-22T07:19:41.095Z,44.72
2023-03-22T07:23:41.407Z,44.73
2023-03-22T07:27:41.044Z,44.72
2023-03-22T07:31:41.445Z,44.73
2023-03-22T07:35:41.183Z,44.72
2023-03-22T07:39:41.019Z,44.73
2023-03-22T07:43:53.170Z,44.69
2023-03-22T07:47:42.453Z,44.68
2023-03-22T07:51:41.552Z,44.68
2023-03-22T07:55:40.961Z,44.66
2023-03-22T07:59:40.884Z,44.60
2023-03-22T08:03:40.827Z,44.63
2023-03-22T08:07:40.960Z,44.63
2023-03-22T08:11:40.761Z,44.62
2023-03-22T08:15:41.141Z,44.60
2023-03-22T08:19:40.717Z,44.61
2023-03-22T08:23:42.392Z,44.55
2023-03-22T08:27:40.981Z,44.54
2023-03-22T08:31:41.005Z,44.56
2023-03-22T08:35:41.430Z,40.81
2023-03-22T08:39:40.663Z,41.60
2023-03-22T08:43:40.968Z,40.92
2023-03-22T08:47:40.988Z,42.15
2023-03-22T08:51:41.001Z,42.22
2023-03-22T08:55:41.034Z,42.55
2023-03-22T08:59:40.695Z,42.46
2023-03-22T09:03:40.681Z,42.44
2023-03-22T09:07:40.967Z,42.77
2023-03-22T09:11:40.605Z,43.27
2023-03-22T09:15:40.826Z,43.40
2023-03-22T09:19:40.517Z,43.85
2023-03-22T09:23:40.985Z,44.15
2023-03-22T09:27:40.507Z,44.51
2023-03-22T09:31:40.459Z,44.76
2023-03-22T09:35:40.619Z,45.07
2023-03-22T09:39:40.496Z,44.94
2023-03-22T09:43:40.470Z,44.79
2023-03-22T09:47:44.655Z,44.59
2023-03-22T09:51:40.255Z,44.51
2023-03-22T09:55:40.893Z,44.90
2023-03-22T09:59:40.184Z,45.06
2023-03-22T10:03:40.244Z,45.60
2023-03-22T10:07:40.504Z,45.98
2023-03-22T10:11:40.239Z,46.33
2023-03-22T10:15:40.459Z,46.50
2023-03-22T10:19:40.484Z,46.83
2023-03-22T10:23:42.273Z,47.05
2023-03-22T10:27:40.214Z,47.34
2023-03-22T10:31:40.499Z,48.02
2023-03-22T10:35:40.417Z,47.95
2023-03-22T10:39:40.482Z,47.93
2023-03-22T10:43:40.047Z,44.66
2023-03-22T10:47:40.504Z,40.82
2023-03-22T10:51:40.013Z,39.29
2023-03-22T10:55:40.430Z,40.90
2023-03-22T10:59:39.929Z,40.82
2023-03-22T11:03:39.977Z,40.90
2023-03-22T11:07:39.838Z,40.96
2023-03-22T11:11:39.821Z,41.04
2023-03-22T11:15:40.053Z,41.13
2023-03-22T11:19:39.760Z,41.25
2023-03-22T11:23:39.712Z,41.28
2023-03-22T11:27:39.672Z,41.38
2023-03-22T11:31:39.665Z,41.47
2023-03-22T11:35:39.698Z,41.51
2023-03-22T11:39:40.030Z,41.55
2023-03-22T11:43:40.022Z,41.64
2023-03-22T11:47:40.088Z,41.63
2023-03-22T11:51:40.168Z,41.64
2023-03-22T11:55:40.442Z,41.70
2023-03-22T11:59:40.413Z,41.71
2023-03-22T12:03:40.679Z,41.71
2023-03-22T12:07:40.659Z,41.71
2023-03-22T12:11:40.781Z,41.72
2023-03-22T12:15:41.033Z,41.72
2023-03-22T12:19:41.038Z,41.73
2023-03-22T12:23:41.141Z,41.71
2023-03-22T12:27:41.240Z,41.75
2023-03-22T12:31:41.580Z,41.77
2023-03-22T12:35:41.673Z,41.72
2023-03-22T12:39:42.036Z,41.74
2023-03-22T12:43:41.670Z,41.79
2023-03-22T12:47:42.036Z,41.60
2023-03-22T12:51:41.909Z,41.34
2023-03-22T12:55:42.304Z,39.81
2023-03-22T12:59:42.245Z,36.42
2023-03-22T13:03:42.328Z,37.18
2023-03-22T13:07:42.182Z,34.19
2023-03-22T13:11:42.146Z,34.65
2023-03-22T13:15:42.787Z,34.05
2023-03-22T13:19:42.082Z,33.69
2023-03-22T13:23:42.106Z,34.72
2023-03-22T13:27:42.055Z,35.46
2023-03-22T13:31:42.046Z,35.67
2023-03-22T13:35:42.177Z,36.08
2023-03-22T13:39:41.927Z,36.20
2023-03-22T13:43:41.896Z,36.46
2023-03-22T13:47:41.928Z,36.20
2023-03-22T13:51:41.778Z,36.97
2023-03-22T13:55:41.961Z,37.16
2023-03-22T13:59:41.731Z,37.15
2023-03-22T14:03:41.824Z,36.90
2023-03-22T14:07:41.674Z,37.66
2023-03-22T14:11:41.638Z,37.69
2023-03-22T14:15:41.609Z,37.57
2023-03-22T14:19:41.559Z,37.19
2023-03-22T14:48:42.112Z,37.59
2023-03-22T14:52:42.095Z,37.52
2023-03-22T14:56:42.039Z,37.16
2023-03-22T15:00:41.997Z,37.09
2023-03-22T15:04:41.958Z,36.78
2023-03-22T15:08:41.964Z,36.51
2023-03-22T15:12:41.893Z,36.39
2023-03-22T15:16:41.876Z,36.01
2023-03-22T15:20:42.025Z,34.98
2023-03-22T15:24:41.800Z,34.50
2023-03-22T15:28:41.764Z,33.94
2023-03-22T15:32:41.709Z,34.18
2023-03-22T15:36:41.704Z,34.81
2023-03-22T15:40:41.690Z,35.94
2023-03-22T15:44:41.657Z,37.00
2023-03-22T15:48:41.717Z,38.05
2023-03-22T15:52:41.660Z,38.52
2023-03-22T15:56:41.620Z,39.08
2023-03-22T16:00:41.618Z,39.36
2023-03-22T16:04:41.562Z,39.49
2023-03-22T16:08:41.501Z,39.62
2023-03-22T16:12:41.487Z,39.74
2023-03-22T16:16:41.483Z,39.87
2023-03-22T16:20:41.424Z,39.95
2023-03-22T16:24:41.399Z,40.06
2023-03-22T16:28:41.348Z,40.10
2023-03-22T16:32:41.292Z,40.20
2023-03-22T16:36:41.297Z,40.23
2023-03-22T16:40:41.266Z,40.24
2023-03-22T16:44:44.768Z,40.29
2023-03-22T16:48:42.176Z,40.36
2023-03-22T16:52:41.130Z,40.39
2023-03-22T16:56:41.122Z,40.43
2023-03-22T17:00:41.092Z,40.48
2023-03-22T17:04:41.084Z,40.48
2023-03-22T17:08:40.994Z,40.53
2023-03-22T17:12:40.940Z,40.53
2023-03-22T17:16:40.955Z,40.58
2023-03-22T17:20:41.027Z,40.60
2023-03-22T17:24:40.854Z,40.64
2023-03-22T17:28:40.803Z,40.66
2023-03-22T17:36:41.722Z,40.69
2023-03-22T17:40:50.777Z,40.71
2023-03-22T17:44:42.487Z,40.75
2023-03-22T17:48:40.979Z,40.73
2023-03-22T17:52:40.894Z,40.76
2023-03-22T17:57:08.846Z,40.78
2023-03-22T18:00:42.110Z,40.78
2023-03-22T18:04:40.832Z,40.79
2023-03-22T18:08:40.911Z,40.81
2023-03-22T18:12:40.748Z,40.82
2023-03-22T18:16:52.671Z,40.83
2023-03-22T18:24:40.869Z,40.85
2023-03-22T18:28:40.883Z,40.85
2023-03-22T18:33:03.633Z,40.86
2023-03-22T18:36:41.926Z,40.85
2023-03-22T18:41:17.247Z,40.83
2023-03-22T18:44:41.827Z,40.87
2023-03-22T18:48:40.787Z,40.86
2023-03-22T18:53:00.832Z,40.87
2023-03-22T18:56:41.936Z,40.84
2023-03-22T19:00:40.688Z,40.85
2023-03-22T19:04:40.645Z,40.85
2023-03-22T19:08:40.597Z,40.86
2023-03-22T19:12:40.568Z,40.84
2023-03-22T19:16:40.527Z,40.83
2023-03-22T19:20:40.898Z,40.84
2023-03-22T19:24:40.654Z,40.85
2023-03-22T19:28:40.719Z,40.84
2023-03-22T19:32:48.048Z,40.83
2023-03-22T19:36:41.788Z,40.83
2023-03-22T19:41:27.685Z,40.82
2023-03-22T19:44:41.671Z,40.85
2023-03-22T19:48:40.675Z,40.85
2023-03-22T19:52:40.943Z,40.83
2023-03-22T19:56:40.550Z,40.82
2023-03-22T20:00:45.738Z,40.81
2023-03-22T20:04:41.511Z,40.82
2023-03-22T20:08:40.464Z,40.80
2023-03-22T20:12:40.463Z,40.80
2023-03-22T20:16:40.421Z,40.79
2023-03-22T20:20:40.360Z,40.78
2023-03-22T20:24:40.436Z,40.76
2023-03-22T20:28:40.539Z,40.75
2023-03-22T20:32:40.617Z,40.76
2023-03-22T20:36:40.674Z,40.74
2023-03-22T20:40:40.763Z,40.73
2023-03-22T20:44:40.849Z,40.75
2023-03-22T20:48:40.934Z,40.72
2023-03-22T20:52:41.023Z,40.72
2023-03-22T20:56:41.072Z,40.70
2023-03-22T21:00:41.172Z,40.72
2023-03-22T21:04:41.262Z,40.72
2023-03-22T21:08:41.319Z,40.69
2023-03-22T21:12:41.393Z,40.67
2023-03-22T21:16:41.518Z,40.63
2023-03-22T21:20:41.564Z,40.63
2023-03-22T21:24:41.664Z,40.64
2023-03-22T21:28:41.761Z,40.64
2023-03-22T21:32:41.824Z,40.64
2023-03-22T21:36:41.948Z,40.65
2023-03-22T21:40:42.035Z,40.59
2023-03-22T21:44:42.204Z,40.64
2023-03-22T21:48:42.244Z,40.63
2023-03-22T21:52:42.303Z,40.58
2023-03-22T21:56:42.414Z,40.58
2023-03-22T22:00:42.504Z,40.58
2023-03-22T22:04:42.622Z,40.60
2023-03-22T22:08:42.714Z,40.57
2023-03-22T22:12:42.780Z,40.55
2023-03-22T22:16:42.884Z,40.55
2023-03-22T22:20:42.981Z,40.57
2023-03-22T22:24:43.094Z,40.54
2023-03-22T22:28:43.148Z,40.54
2023-03-22T22:32:43.281Z,40.52
2023-03-22T22:36:43.403Z,40.52
2023-03-22T22:40:43.484Z,40.49
2023-03-22T22:44:43.592Z,40.50
2023-03-22T22:48:43.690Z,40.50
2023-03-22T22:52:43.802Z,40.49
2023-03-22T22:56:43.870Z,40.47
2023-03-22T23:00:43.991Z,40.47
2023-03-22T23:04:44.041Z,40.46
2023-03-22T23:08:44.132Z,40.44
2023-03-22T23:12:44.295Z,40.43
2023-03-22T23:16:44.386Z,40.45
2023-03-22T23:20:44.454Z,40.42
2023-03-22T23:24:44.676Z,40.42
2023-03-22T23:28:44.674Z,40.39
2023-03-22T23:32:44.768Z,40.40
2023-03-22T23:36:44.928Z,40.41
2023-03-22T23:40:45.045Z,40.36
2023-03-22T23:44:45.155Z,40.38
2023-03-22T23:48:45.316Z,40.34
2023-03-22T23:52:45.427Z,40.35
2023-03-22T23:56:45.544Z,40.34
